sensor_id;sensor_type;location;lat;lon;timestamp;pressure;altitude;pressure_sealevel;temperature;humidity
62524;BME280;53689;56.878;60.672;2022-07-29T00:01:03;98260.63;;;23.57;42.37
62524;BME280;53689;56.878;60.672;2022-07-29T00:03:31;98261.44;;;23.64;42.19
62524;BME280;53689;56.878;60.672;2022-07-29T00:05:58;98257.69;;;23.65;41.64
62524;BME280;53689;56.878;60.672;2022-07-29T00:08:28;98270.59;;;23.63;42.11
62524;BME280;53689;56.878;60.672;2022-07-29T00:10:55;98267.06;;;23.63;42.07
62524;BME280;53689;56.878;60.672;2022-07-29T00:13:23;98275.00;;;23.58;42.03
62524;BME280;53689;56.878;60.672;2022-07-29T00:15:58;98275.63;;;23.53;41.98
62524;BME280;53689;56.878;60.672;2022-07-29T00:18:31;98272.69;;;23.48;42.56
62524;BME280;53689;56.878;60.672;2022-07-29T00:20:58;98279.75;;;23.49;41.76
62524;BME280;53689;56.878;60.672;2022-07-29T00:23:27;98272.28;;;23.51;42.11
62524;BME280;53689;56.878;60.672;2022-07-29T00:25:56;98279.34;;;23.52;42.36
62524;BME280;53689;56.878;60.672;2022-07-29T00:28:24;98277.69;;;23.51;41.96
62524;BME280;53689;56.878;60.672;2022-07-29T00:30:51;98275.00;;;23.44;42.36
62524;BME280;53689;56.878;60.672;2022-07-29T00:33:18;98280.59;;;23.56;41.62
62524;BME280;53689;56.878;60.672;2022-07-29T00:35:46;98279.34;;;23.52;42.24
62524;BME280;53689;56.878;60.672;2022-07-29T00:38:15;98278.91;;;23.62;41.73
62524;BME280;53689;56.878;60.672;2022-07-29T00:40:44;98276.63;;;23.52;41.84
62524;BME280;53689;56.878;60.672;2022-07-29T00:43:12;98279.34;;;23.45;41.81
62524;BME280;53689;56.878;60.672;2022-07-29T00:45:40;98274.34;;;23.49;42.48
62524;BME280;53689;56.878;60.672;2022-07-29T00:48:07;98270.44;;;23.45;41.97
62524;BME280;53689;56.878;60.672;2022-07-29T00:50:35;98271.88;;;23.27;42.44
62524;BME280;53689;56.878;60.672;2022-07-29T00:53:04;98278.53;;;23.31;42.09
62524;BME280;53689;56.878;60.672;2022-07-29T00:55:32;98278.09;;;23.48;41.75
62524;BME280;53689;56.878;60.672;2022-07-29T00:58:01;98282.69;;;23.34;42.68
62524;BME280;53689;56.878;60.672;2022-07-29T01:00:29;98279.78;;;23.35;41.87
62524;BME280;53689;56.878;60.672;2022-07-29T01:02:57;98274.38;;;23.35;42.21
62524;BME280;53689;56.878;60.672;2022-07-29T01:05:26;98278.72;;;23.63;41.32
62524;BME280;53689;56.878;60.672;2022-07-29T01:08:15;98287.00;;;23.68;41.33
62524;BME280;53689;56.878;60.672;2022-07-29T01:10:44;98287.94;;;24.21;40.61
62524;BME280;53689;56.878;60.672;2022-07-29T01:13:13;98275.75;;;25.59;37.71
62524;BME280;53689;56.878;60.672;2022-07-29T01:15:44;98289.59;;;25.70;37.59
62524;BME280;53689;56.878;60.672;2022-07-29T01:18:18;98291.59;;;25.62;37.45
62524;BME280;53689;56.878;60.672;2022-07-29T01:21:00;98291.59;;;24.34;39.87
62524;BME280;53689;56.878;60.672;2022-07-29T01:23:44;98286.91;;;24.16;40.19
62524;BME280;53689;56.878;60.672;2022-07-29T01:26:49;98293.81;;;23.91;40.68
62524;BME280;53689;56.878;60.672;2022-07-29T01:29:26;98293.69;;;23.32;42.22
62524;BME280;53689;56.878;60.672;2022-07-29T01:32:07;98290.97;;;23.05;43.12
62524;BME280;53689;56.878;60.672;2022-07-29T01:34:58;98290.13;;;22.98;43.16
62524;BME280;53689;56.878;60.672;2022-07-29T01:37:36;98289.13;;;23.39;42.08
62524;BME280;53689;56.878;60.672;2022-07-29T01:40:09;98287.22;;;22.99;43.24
62524;BME280;53689;56.878;60.672;2022-07-29T01:42:43;98287.22;;;22.86;43.84
62524;BME280;53689;56.878;60.672;2022-07-29T01:45:15;98287.84;;;22.81;43.40
62524;BME280;53689;56.878;60.672;2022-07-29T01:47:46;98285.75;;;22.90;43.82
62524;BME280;53689;56.878;60.672;2022-07-29T01:50:17;98279.53;;;22.90;43.06
62524;BME280;53689;56.878;60.672;2022-07-29T01:52:49;98284.31;;;22.88;43.19
62524;BME280;53689;56.878;60.672;2022-07-29T01:55:20;98287.22;;;22.79;43.96
62524;BME280;53689;56.878;60.672;2022-07-29T01:57:49;98292.56;;;22.66;43.93
62524;BME280;53689;56.878;60.672;2022-07-29T02:00:18;98288.44;;;22.70;43.89
62524;BME280;53689;56.878;60.672;2022-07-29T02:02:47;98288.06;;;22.86;43.51
62524;BME280;53689;56.878;60.672;2022-07-29T02:05:17;98285.31;;;22.59;43.99
62524;BME280;53689;56.878;60.672;2022-07-29T02:07:47;98285.72;;;22.63;43.38
62524;BME280;53689;56.878;60.672;2022-07-29T02:10:17;98282.00;;;22.84;43.25
62524;BME280;53689;56.878;60.672;2022-07-29T02:12:52;98289.28;;;22.84;43.01
62524;BME280;53689;56.878;60.672;2022-07-29T02:15:24;98288.69;;;22.82;43.51
62524;BME280;53689;56.878;60.672;2022-07-29T02:17:56;98285.31;;;22.66;43.28
62524;BME280;53689;56.878;60.672;2022-07-29T02:20:26;98283.47;;;22.80;43.50
62524;BME280;53689;56.878;60.672;2022-07-29T02:22:55;98273.53;;;23.01;42.43
62524;BME280;53689;56.878;60.672;2022-07-29T02:25:24;98280.38;;;22.97;43.13
62524;BME280;53689;56.878;60.672;2022-07-29T02:28:04;98282.66;;;23.00;42.95
62524;BME280;53689;56.878;60.672;2022-07-29T02:30:34;98283.03;;;22.70;44.00
62524;BME280;53689;56.878;60.672;2022-07-29T02:33:04;98273.72;;;22.79;43.22
62524;BME280;53689;56.878;60.672;2022-07-29T02:35:32;98272.50;;;23.16;42.90
62524;BME280;53689;56.878;60.672;2022-07-29T02:38:02;98271.22;;;22.71;43.79
62524;BME280;53689;56.878;60.672;2022-07-29T02:40:30;98274.09;;;22.76;43.32
62524;BME280;53689;56.878;60.672;2022-07-29T02:42:58;98268.94;;;22.75;43.46
62524;BME280;53689;56.878;60.672;2022-07-29T02:45:26;98270.38;;;22.70;43.53
62524;BME280;53689;56.878;60.672;2022-07-29T02:47:57;98267.28;;;22.80;43.29
62524;BME280;53689;56.878;60.672;2022-07-29T02:50:31;98277.66;;;22.83;43.49
62524;BME280;53689;56.878;60.672;2022-07-29T02:53:03;98268.53;;;22.91;42.96
62524;BME280;53689;56.878;60.672;2022-07-29T02:55:34;98269.16;;;22.86;43.53
62524;BME280;53689;56.878;60.672;2022-07-29T02:58:09;98261.06;;;23.13;42.28
62524;BME280;53689;56.878;60.672;2022-07-29T03:00:41;98262.09;;;22.99;42.72
62524;BME280;53689;56.878;60.672;2022-07-29T03:03:13;98258.56;;;22.92;43.24
62524;BME280;53689;56.878;60.672;2022-07-29T03:05:42;98258.75;;;22.83;43.23
62524;BME280;53689;56.878;60.672;2022-07-29T03:08:11;98260.41;;;22.84;43.25
62524;BME280;53689;56.878;60.672;2022-07-29T03:10:39;98262.69;;;22.81;43.57
62524;BME280;53689;56.878;60.672;2022-07-29T03:13:10;98247.75;;;22.78;42.79
62524;BME280;53689;56.878;60.672;2022-07-29T03:15:38;98252.94;;;22.80;43.11
62524;BME280;53689;56.878;60.672;2022-07-29T03:18:06;98250.88;;;23.02;42.50
62524;BME280;53689;56.878;60.672;2022-07-29T03:20:37;98249.19;;;22.74;43.34
62524;BME280;53689;56.878;60.672;2022-07-29T03:23:04;98242.75;;;22.75;43.33
62524;BME280;53689;56.878;60.672;2022-07-29T03:25:32;98244.44;;;22.96;43.01
62524;BME280;53689;56.878;60.672;2022-07-29T03:27:59;98246.09;;;22.91;42.79
62524;BME280;53689;56.878;60.672;2022-07-29T03:30:27;98244.88;;;22.93;42.77
62524;BME280;53689;56.878;60.672;2022-07-29T03:32:54;98249.00;;;22.89;42.53
62524;BME280;53689;56.878;60.672;2022-07-29T03:35:24;98254.78;;;22.66;43.71
62524;BME280;53689;56.878;60.672;2022-07-29T03:37:53;98248.16;;;22.75;43.24
62524;BME280;53689;56.878;60.672;2022-07-29T03:40:25;98238.19;;;22.82;43.20
62524;BME280;53689;56.878;60.672;2022-07-29T03:42:54;98245.47;;;22.68;43.82
62524;BME280;53689;56.878;60.672;2022-07-29T03:45:23;98230.09;;;22.76;43.10
62524;BME280;53689;56.878;60.672;2022-07-29T03:47:54;98242.97;;;22.87;43.39
62524;BME280;53689;56.878;60.672;2022-07-29T03:50:27;98224.91;;;22.74;43.53
62524;BME280;53689;56.878;60.672;2022-07-29T03:52:57;98228.03;;;22.98;43.16
62524;BME280;53689;56.878;60.672;2022-07-29T03:55:25;98228.66;;;23.00;42.85
62524;BME280;53689;56.878;60.672;2022-07-29T03:57:54;98226.16;;;22.92;43.00
62524;BME280;53689;56.878;60.672;2022-07-29T04:00:24;98230.09;;;22.82;43.51
62524;BME280;53689;56.878;60.672;2022-07-29T04:02:52;98219.72;;;22.93;42.77
62524;BME280;53689;56.878;60.672;2022-07-29T04:05:20;98234.88;;;22.73;43.39
62524;BME280;53689;56.878;60.672;2022-07-29T04:07:48;98234.47;;;22.70;43.61
62524;BME280;53689;56.878;60.672;2022-07-29T04:10:17;98229.91;;;22.77;43.33
62524;BME280;53689;56.878;60.672;2022-07-29T04:12:58;98230.53;;;22.79;43.32
62524;BME280;53689;56.878;60.672;2022-07-29T04:15:26;98224.63;;;22.49;43.69
62524;BME280;53689;56.878;60.672;2022-07-29T04:17:58;98233.63;;;22.56;43.52
62524;BME280;53689;56.878;60.672;2022-07-29T04:20:25;98226.13;;;22.51;43.33
62524;BME280;53689;56.878;60.672;2022-07-29T04:22:52;98229.88;;;22.50;42.92
62524;BME280;53689;56.878;60.672;2022-07-29T04:25:21;98229.44;;;22.53;43.18
62524;BME280;53689;56.878;60.672;2022-07-29T04:27:49;98224.63;;;22.49;42.52
62524;BME280;53689;56.878;60.672;2022-07-29T04:30:17;98222.13;;;22.34;43.08
62524;BME280;53689;56.878;60.672;2022-07-29T04:32:44;98226.06;;;22.38;43.02
62524;BME280;53689;56.878;60.672;2022-07-29T04:35:12;98215.31;;;22.44;43.11
62524;BME280;53689;56.878;60.672;2022-07-29T04:37:39;98216.81;;;22.61;42.45
62524;BME280;53689;56.878;60.672;2022-07-29T04:40:07;98213.50;;;22.65;42.25
62524;BME280;53689;56.878;60.672;2022-07-29T04:42:36;98210.78;;;22.65;42.45
62524;BME280;53689;56.878;60.672;2022-07-29T04:45:13;98214.72;;;22.76;42.40
62524;BME280;53689;56.878;60.672;2022-07-29T04:47:42;98219.09;;;22.64;42.54
62524;BME280;53689;56.878;60.672;2022-07-29T04:50:09;98218.25;;;22.56;42.49
62524;BME280;53689;56.878;60.672;2022-07-29T04:52:37;98223.06;;;22.68;42.49
62524;BME280;53689;56.878;60.672;2022-07-29T04:55:05;98208.94;;;22.79;41.87
62524;BME280;53689;56.878;60.672;2022-07-29T04:57:33;98214.13;;;22.88;41.72
62524;BME280;53689;56.878;60.672;2022-07-29T05:00:02;98209.34;;;22.83;41.72
62524;BME280;53689;56.878;60.672;2022-07-29T05:02:30;98208.09;;;22.99;41.32
62524;BME280;53689;56.878;60.672;2022-07-29T05:04:58;98206.22;;;22.93;41.64
62524;BME280;53689;56.878;60.672;2022-07-29T05:07:25;98202.50;;;22.73;41.67
62524;BME280;53689;56.878;60.672;2022-07-29T05:09:53;98191.28;;;22.83;41.51
62524;BME280;53689;56.878;60.672;2022-07-29T05:12:20;98200.00;;;22.79;41.31
62524;BME280;53689;56.878;60.672;2022-07-29T05:14:47;98186.28;;;22.87;40.99
62524;BME280;53689;56.878;60.672;2022-07-29T05:17:16;98191.50;;;22.89;41.47
62524;BME280;53689;56.878;60.672;2022-07-29T05:19:44;98195.03;;;22.69;41.41
62524;BME280;53689;56.878;60.672;2022-07-29T05:22:11;98185.47;;;22.86;41.11
62524;BME280;53689;56.878;60.672;2022-07-29T05:24:38;98186.28;;;22.94;40.63
62524;BME280;53689;56.878;60.672;2022-07-29T05:27:06;98188.38;;;22.78;40.73
62524;BME280;53689;56.878;60.672;2022-07-29T05:29:33;98202.28;;;22.75;40.61
62524;BME280;53689;56.878;60.672;2022-07-29T05:32:12;98194.00;;;22.70;40.32
62524;BME280;53689;56.878;60.672;2022-07-29T05:34:41;98187.13;;;22.88;39.39
62524;BME280;53689;56.878;60.672;2022-07-29T05:37:18;98184.44;;;22.94;39.23
62524;BME280;53689;56.878;60.672;2022-07-29T05:39:46;98189.22;;;22.99;39.26
62524;BME280;53689;56.878;60.672;2022-07-29T05:42:23;98178.78;;;23.16;39.87
62524;BME280;53689;56.878;60.672;2022-07-29T05:44:50;98183.78;;;23.12;39.09
62524;BME280;53689;56.878;60.672;2022-07-29T05:47:18;98187.50;;;23.18;39.57
62524;BME280;53689;56.878;60.672;2022-07-29T05:49:47;98180.03;;;23.27;38.87
62524;BME280;53689;56.878;60.672;2022-07-29T05:52:14;98188.56;;;23.24;38.29
62524;BME280;53689;56.878;60.672;2022-07-29T05:54:42;98184.63;;;23.13;38.34
62524;BME280;53689;56.878;60.672;2022-07-29T05:57:15;98192.09;;;23.31;38.06
62524;BME280;53689;56.878;60.672;2022-07-29T05:59:43;98191.25;;;23.10;38.56
62524;BME280;53689;56.878;60.672;2022-07-29T06:02:10;98180.88;;;22.94;38.35
62524;BME280;53689;56.878;60.672;2022-07-29T06:04:38;98179.63;;;23.03;38.50
62524;BME280;53689;56.878;60.672;2022-07-29T06:07:07;98182.13;;;23.11;38.27
62524;BME280;53689;56.878;60.672;2022-07-29T06:09:34;98176.09;;;23.09;38.10
62524;BME280;53689;56.878;60.672;2022-07-29T06:12:03;98183.16;;;23.10;38.17
62524;BME280;53689;56.878;60.672;2022-07-29T06:14:30;98186.06;;;23.29;38.58
62524;BME280;53689;56.878;60.672;2022-07-29T06:16:58;98181.06;;;23.12;38.22
62524;BME280;53689;56.878;60.672;2022-07-29T06:19:25;98179.66;;;23.10;39.28
62524;BME280;53689;56.878;60.672;2022-07-29T06:21:53;98170.91;;;23.21;37.75
62524;BME280;53689;56.878;60.672;2022-07-29T06:24:22;98171.94;;;23.27;37.92
62524;BME280;53689;56.878;60.672;2022-07-29T06:26:49;98178.56;;;23.24;37.99
62524;BME280;53689;56.878;60.672;2022-07-29T06:29:17;98180.00;;;23.40;38.13
62524;BME280;53689;56.878;60.672;2022-07-29T06:31:44;98170.47;;;23.38;37.92
62524;BME280;53689;56.878;60.672;2022-07-29T06:34:12;98172.28;;;23.51;38.15
62524;BME280;53689;56.878;60.672;2022-07-29T06:36:40;98165.47;;;23.48;37.92
62524;BME280;53689;56.878;60.672;2022-07-29T06:39:08;98182.09;;;23.38;37.57
62524;BME280;53689;56.878;60.672;2022-07-29T06:41:39;98165.06;;;23.38;38.13
62524;BME280;53689;56.878;60.672;2022-07-29T06:44:09;98168.59;;;23.38;37.38
62524;BME280;53689;56.878;60.672;2022-07-29T06:46:36;98163.00;;;23.33;38.44
62524;BME280;53689;56.878;60.672;2022-07-29T06:49:04;98185.41;;;23.40;38.32
62524;BME280;53689;56.878;60.672;2022-07-29T06:51:31;98175.66;;;23.39;37.67
62524;BME280;53689;56.878;60.672;2022-07-29T06:53:59;98180.25;;;23.32;37.37
62524;BME280;53689;56.878;60.672;2022-07-29T06:56:29;98196.25;;;23.34;37.82
62524;BME280;53689;56.878;60.672;2022-07-29T06:58:59;98192.50;;;23.21;37.09
62524;BME280;53689;56.878;60.672;2022-07-29T07:01:27;98183.16;;;23.10;37.44
62524;BME280;53689;56.878;60.672;2022-07-29T07:03:55;98183.97;;;23.24;37.27
62524;BME280;53689;56.878;60.672;2022-07-29T07:06:22;98176.06;;;23.23;37.02
62524;BME280;53689;56.878;60.672;2022-07-29T07:08:50;98190.19;;;23.45;36.69
62524;BME280;53689;56.878;60.672;2022-07-29T07:11:17;98190.66;;;23.35;37.49
62524;BME280;53689;56.878;60.672;2022-07-29T07:13:45;98185.03;;;23.17;37.50
62524;BME280;53689;56.878;60.672;2022-07-29T07:16:14;98180.88;;;23.34;37.40
62524;BME280;53689;56.878;60.672;2022-07-29T07:18:42;98183.97;;;23.31;36.68
62524;BME280;53689;56.878;60.672;2022-07-29T07:21:09;98177.13;;;23.28;36.92
62524;BME280;53689;56.878;60.672;2022-07-29T07:23:37;98176.50;;;23.40;37.29
62524;BME280;53689;56.878;60.672;2022-07-29T07:26:05;98164.69;;;23.34;36.79
62524;BME280;53689;56.878;60.672;2022-07-29T07:28:32;98162.72;;;23.55;37.46
62524;BME280;53689;56.878;60.672;2022-07-29T07:31:00;98170.75;;;23.75;36.39
62524;BME280;53689;56.878;60.672;2022-07-29T07:33:28;98177.66;;;23.64;36.41
62524;BME280;53689;56.878;60.672;2022-07-29T07:35:56;98178.72;;;23.63;36.32
62524;BME280;53689;56.878;60.672;2022-07-29T07:38:23;98169.19;;;23.54;37.08
62524;BME280;53689;56.878;60.672;2022-07-29T07:40:51;98177.69;;;23.51;37.23
62524;BME280;53689;56.878;60.672;2022-07-29T07:43:18;98180.00;;;23.54;37.37
62524;BME280;53689;56.878;60.672;2022-07-29T07:45:46;98178.13;;;23.48;37.90
62524;BME280;53689;56.878;60.672;2022-07-29T07:48:16;98172.28;;;23.58;36.61
62524;BME280;53689;56.878;60.672;2022-07-29T07:50:45;98179.94;;;23.67;36.94
62524;BME280;53689;56.878;60.672;2022-07-29T07:53:13;98182.50;;;23.49;37.04
62524;BME280;53689;56.878;60.672;2022-07-29T07:55:43;98184.75;;;23.52;37.60
62524;BME280;53689;56.878;60.672;2022-07-29T07:58:30;98185.00;;;23.50;37.30
62524;BME280;53689;56.878;60.672;2022-07-29T08:00:58;98189.16;;;23.39;36.92
62524;BME280;53689;56.878;60.672;2022-07-29T08:03:25;98186.69;;;23.45;37.44
62524;BME280;53689;56.878;60.672;2022-07-29T08:05:54;98176.28;;;23.48;37.66
62524;BME280;53689;56.878;60.672;2022-07-29T08:08:22;98168.16;;;23.48;37.12
62524;BME280;53689;56.878;60.672;2022-07-29T08:10:50;98178.72;;;23.63;36.66
62524;BME280;53689;56.878;60.672;2022-07-29T08:13:17;98177.88;;;23.63;37.19
62524;BME280;53689;56.878;60.672;2022-07-29T08:15:45;98177.69;;;23.51;37.43
62524;BME280;53689;56.878;60.672;2022-07-29T08:18:13;98165.63;;;23.60;36.55
62524;BME280;53689;56.878;60.672;2022-07-29T08:20:40;98177.03;;;23.69;36.61
62524;BME280;53689;56.878;60.672;2022-07-29T08:23:09;98170.59;;;23.63;36.22
62524;BME280;53689;56.878;60.672;2022-07-29T08:25:37;98164.81;;;23.60;36.98
62524;BME280;53689;56.878;60.672;2022-07-29T08:28:06;98170.84;;;24.07;35.80
62524;BME280;53689;56.878;60.672;2022-07-29T08:30:34;98179.38;;;24.11;36.05
62524;BME280;53689;56.878;60.672;2022-07-29T08:33:02;98177.84;;;23.69;36.16
62524;BME280;53689;56.878;60.672;2022-07-29T08:35:29;98179.69;;;23.76;36.56
62524;BME280;53689;56.878;60.672;2022-07-29T08:38:02;98181.59;;;23.68;36.44
62524;BME280;53689;56.878;60.672;2022-07-29T08:40:32;98181.41;;;23.63;36.33
62524;BME280;53689;56.878;60.672;2022-07-29T08:43:04;98179.94;;;23.67;36.98
62524;BME280;53689;56.878;60.672;2022-07-29T08:45:41;98179.34;;;23.52;36.67
62524;BME280;53689;56.878;60.672;2022-07-29T08:48:15;98185.41;;;23.47;36.62
62524;BME280;53689;56.878;60.672;2022-07-29T08:50:43;98184.75;;;23.59;37.18
62524;BME280;53689;56.878;60.672;2022-07-29T08:53:14;98181.41;;;23.56;37.16
62524;BME280;53689;56.878;60.672;2022-07-29T08:55:45;98194.06;;;23.69;36.94
62524;BME280;53689;56.878;60.672;2022-07-29T08:58:13;98189.13;;;23.60;38.06
62524;BME280;53689;56.878;60.672;2022-07-29T09:00:43;98179.75;;;23.62;37.71
62524;BME280;53689;56.878;60.672;2022-07-29T09:03:15;98178.91;;;23.62;36.91
62524;BME280;53689;56.878;60.672;2022-07-29T09:05:45;98180.78;;;23.68;37.04
62524;BME280;53689;56.878;60.672;2022-07-29T09:08:15;98181.78;;;23.74;36.07
62524;BME280;53689;56.878;60.672;2022-07-29T09:10:44;98180.72;;;23.81;36.70
62524;BME280;53689;56.878;60.672;2022-07-29T09:13:12;98188.19;;;23.86;36.68
62524;BME280;53689;56.878;60.672;2022-07-29T09:15:39;98182.19;;;23.77;35.83
62524;BME280;53689;56.878;60.672;2022-07-29T09:18:07;98183.25;;;23.76;36.09
62524;BME280;53689;56.878;60.672;2022-07-29T09:20:56;98176.97;;;23.82;36.38
62524;BME280;53689;56.878;60.672;2022-07-29T09:23:23;98177.94;;;24.02;35.64
62524;BME280;53689;56.878;60.672;2022-07-29T09:25:53;98182.59;;;23.81;35.98
62524;BME280;53689;56.878;60.672;2022-07-29T09:28:20;98178.41;;;23.85;36.31
62524;BME280;53689;56.878;60.672;2022-07-29T09:30:52;98181.09;;;23.92;35.64
62524;BME280;53689;56.878;60.672;2022-07-29T09:33:20;98191.47;;;23.95;35.74
62524;BME280;53689;56.878;60.672;2022-07-29T09:35:58;98186.72;;;23.90;37.13
62524;BME280;53689;56.878;60.672;2022-07-29T09:38:27;98190.88;;;23.86;36.03
62524;BME280;53689;56.878;60.672;2022-07-29T09:41:00;98189.63;;;23.89;37.18
62524;BME280;53689;56.878;60.672;2022-07-29T09:43:32;98192.50;;;23.94;36.14
62524;BME280;53689;56.878;60.672;2022-07-29T09:46:10;98197.94;;;23.87;37.42
62524;BME280;53689;56.878;60.672;2022-07-29T09:48:38;98193.41;;;23.81;37.46
62524;BME280;53689;56.878;60.672;2022-07-29T09:51:17;98196.09;;;23.88;36.70
62524;BME280;53689;56.878;60.672;2022-07-29T09:53:49;98206.41;;;24.04;36.54
62524;BME280;53689;56.878;60.672;2022-07-29T09:56:20;98196.84;;;24.02;36.62
62524;BME280;53689;56.878;60.672;2022-07-29T09:59:05;98193.28;;;24.15;36.29
62524;BME280;53689;56.878;60.672;2022-07-29T10:01:33;98212.03;;;24.03;36.74
62524;BME280;53689;56.878;60.672;2022-07-29T10:04:01;98209.75;;;24.00;35.92
62524;BME280;53689;56.878;60.672;2022-07-29T10:06:28;98207.44;;;24.03;35.91
62524;BME280;53689;56.878;60.672;2022-07-29T10:09:07;98203.06;;;24.09;36.55
62524;BME280;53689;56.878;60.672;2022-07-29T10:11:37;98213.50;;;23.98;36.68
62524;BME280;53689;56.878;60.672;2022-07-29T10:14:16;98207.31;;;23.91;36.30
62524;BME280;53689;56.878;60.672;2022-07-29T10:16:44;98201.41;;;24.08;36.66
62524;BME280;53689;56.878;60.672;2022-07-29T10:19:12;98204.13;;;24.08;36.23
62524;BME280;53689;56.878;60.672;2022-07-29T10:21:40;98201.16;;;24.16;36.60
62524;BME280;53689;56.878;60.672;2022-07-29T10:24:09;98204.66;;;24.23;36.34
62524;BME280;53689;56.878;60.672;2022-07-29T10:26:42;98199.91;;;24.19;36.41
62524;BME280;53689;56.878;60.672;2022-07-29T10:29:10;98191.91;;;24.37;36.70
62524;BME280;53689;56.878;60.672;2022-07-29T10:31:43;98200.09;;;24.24;36.27
62524;BME280;53689;56.878;60.672;2022-07-29T10:34:23;98183.81;;;24.31;36.67
62524;BME280;53689;56.878;60.672;2022-07-29T10:37:03;98196.38;;;24.18;36.99
62524;BME280;53689;56.878;60.672;2022-07-29T10:39:43;98202.06;;;24.10;36.82
62524;BME280;53689;56.878;60.672;2022-07-29T10:42:19;98198.06;;;24.13;36.71
62524;BME280;53689;56.878;60.672;2022-07-29T10:45:02;98198.94;;;24.06;37.10
62524;BME280;53689;56.878;60.672;2022-07-29T10:47:31;98195.19;;;24.07;36.40
62524;BME280;53689;56.878;60.672;2022-07-29T10:50:03;98187.28;;;23.99;36.45
62524;BME280;53689;56.878;60.672;2022-07-29T10:52:55;98188.75;;;23.95;37.22
62524;BME280;53689;56.878;60.672;2022-07-29T10:55:34;98178.53;;;24.04;37.14
62524;BME280;53689;56.878;60.672;2022-07-29T10:58:17;98180.38;;;24.17;37.02
62524;BME280;53689;56.878;60.672;2022-07-29T11:00:46;98186.44;;;24.12;36.72
62524;BME280;53689;56.878;60.672;2022-07-29T11:03:44;98190.59;;;24.15;36.69
62524;BME280;53689;56.878;60.672;2022-07-29T11:06:17;98186.00;;;24.15;37.04
62524;BME280;53689;56.878;60.672;2022-07-29T11:09:15;98186.19;;;24.14;36.58
62524;BME280;53689;56.878;60.672;2022-07-29T11:11:46;98187.94;;;23.94;37.40
62524;BME280;53689;56.878;60.672;2022-07-29T11:14:55;98175.72;;;24.31;36.15
62524;BME280;53689;56.878;60.672;2022-07-29T11:17:24;98181.69;;;24.39;36.15
62524;BME280;53689;56.878;60.672;2022-07-29T11:20:31;98162.59;;;24.28;36.56
62524;BME280;53689;56.878;60.672;2022-07-29T11:22:58;98164.28;;;24.29;36.83
62524;BME280;53689;56.878;60.672;2022-07-29T11:25:26;98174.72;;;24.18;36.88
62524;BME280;53689;56.878;60.672;2022-07-29T11:28:18;98165.59;;;24.19;36.55
62524;BME280;53689;56.878;60.672;2022-07-29T11:30:53;98171.41;;;24.16;36.40
62524;BME280;53689;56.878;60.672;2022-07-29T11:33:31;98179.56;;;24.09;36.54
62524;BME280;53689;56.878;60.672;2022-07-29T11:36:18;98171.25;;;24.11;36.08
62524;BME280;53689;56.878;60.672;2022-07-29T11:39:27;98166.44;;;24.13;36.11
62524;BME280;53689;56.878;60.672;2022-07-29T11:42:40;98158.53;;;24.11;35.79
62524;BME280;53689;56.878;60.672;2022-07-29T11:45:12;98150.19;;;24.20;35.81
62524;BME280;53689;56.878;60.672;2022-07-29T11:48:01;98161.94;;;24.32;36.18
62524;BME280;53689;56.878;60.672;2022-07-29T11:50:48;98164.75;;;24.19;36.27
62524;BME280;53689;56.878;60.672;2022-07-29T11:53:17;98166.06;;;24.09;36.07
62524;BME280;53689;56.878;60.672;2022-07-29T11:55:44;98162.66;;;24.21;35.82
62524;BME280;53689;56.878;60.672;2022-07-29T11:58:21;98167.16;;;24.34;36.31
62524;BME280;53689;56.878;60.672;2022-07-29T12:00:52;98155.72;;;24.32;36.16
62524;BME280;53689;56.878;60.672;2022-07-29T12:03:26;98156.06;;;24.10;36.83
62524;BME280;53689;56.878;60.672;2022-07-29T12:06:14;98156.31;;;24.34;36.65
62524;BME280;53689;56.878;60.672;2022-07-29T12:08:44;98148.41;;;24.39;35.77
62524;BME280;53689;56.878;60.672;2022-07-29T12:11:17;98149.25;;;24.33;36.47
62524;BME280;53689;56.878;60.672;2022-07-29T12:13:48;98147.91;;;24.17;37.02
62524;BME280;53689;56.878;60.672;2022-07-29T12:16:15;98147.03;;;24.23;36.41
62524;BME280;53689;56.878;60.672;2022-07-29T12:19:01;98146.16;;;24.29;37.12
62524;BME280;53689;56.878;60.672;2022-07-29T12:21:29;98153.81;;;24.32;36.05
62524;BME280;53689;56.878;60.672;2022-07-29T12:23:57;98153.72;;;24.20;35.87
62524;BME280;53689;56.878;60.672;2022-07-29T12:26:35;98149.97;;;24.21;36.50
62524;BME280;53689;56.878;60.672;2022-07-29T12:29:03;98154.06;;;24.31;35.83
62524;BME280;53689;56.878;60.672;2022-07-29T12:31:41;98160.16;;;24.51;35.81
62524;BME280;53689;56.878;60.672;2022-07-29T12:34:15;98161.75;;;24.34;36.65
62524;BME280;53689;56.878;60.672;2022-07-29T12:36:43;98161.94;;;24.39;36.20
62524;BME280;53689;56.878;60.672;2022-07-29T12:39:11;98158.88;;;24.29;36.23
62524;BME280;53689;56.878;60.672;2022-07-29T12:41:38;98155.97;;;24.23;37.05
62524;BME280;53689;56.878;60.672;2022-07-29T12:44:06;98157.56;;;24.38;36.06
62524;BME280;53689;56.878;60.672;2022-07-29T12:46:33;98149.06;;;24.34;36.28
62524;BME280;53689;56.878;60.672;2022-07-29T12:49:01;98147.69;;;24.18;36.89
62524;BME280;53689;56.878;60.672;2022-07-29T12:51:32;98144.56;;;24.21;37.18
62524;BME280;53689;56.878;60.672;2022-07-29T12:54:06;98151.78;;;24.28;36.91
62524;BME280;53689;56.878;60.672;2022-07-29T12:56:34;98144.94;;;24.25;36.53
62524;BME280;53689;56.878;60.672;2022-07-29T12:59:15;98149.59;;;24.43;37.09
62524;BME280;53689;56.878;60.672;2022-07-29T13:01:43;98147.09;;;24.42;36.30
62524;BME280;53689;56.878;60.672;2022-07-29T13:04:24;98149.59;;;24.43;36.51
62524;BME280;53689;56.878;60.672;2022-07-29T13:07:00;98145.91;;;24.37;36.82
62524;BME280;53689;56.878;60.672;2022-07-29T13:09:37;98150.31;;;24.32;36.44
62524;BME280;53689;56.878;60.672;2022-07-29T13:12:07;98148.88;;;24.29;36.12